sensor_id;sensor_type;location;lat;lon;timestamp;P1;durP1;ratioP1;P2;durP2;ratioP2
31390;SDS011;18022;45.492;11.548;2023-02-01T00:01:28;67.82;;;40.92;;
31390;SDS011;18022;45.492;11.548;2023-02-01T00:03:54;88.75;;;51.67;;
31390;SDS011;18022;45.492;11.548;2023-02-01T00:06:20;87.82;;;51.33;;
31390;SDS011;18022;45.492;11.548;2023-02-01T00:08:46;81.13;;;51.33;;
31390;SDS011;18022;45.492;11.548;2023-02-01T00:11:12;80.70;;;50.25;;
31390;SDS011;18022;45.492;11.548;2023-02-01T00:13:39;76.72;;;49.78;;
31390;SDS011;18022;45.492;11.548;2023-02-01T00:16:16;84.53;;;52.43;;
31390;SDS011;18022;45.492;11.548;2023-02-01T00:18:43;86.78;;;52.55;;
31390;SDS011;18022;45.492;11.548;2023-02-01T00:21:12;87.60;;;51.83;;
31390;SDS011;18022;45.492;11.548;2023-02-01T00:23:38;88.93;;;53.17;;
31390;SDS011;18022;45.492;11.548;2023-02-01T00:26:07;87.00;;;53.05;;
31390;SDS011;18022;45.492;11.548;2023-02-01T00:28:33;90.00;;;53.92;;
31390;SDS011;18022;45.492;11.548;2023-02-01T00:31:00;83.03;;;52.42;;
31390;SDS011;18022;45.492;11.548;2023-02-01T00:33:27;92.28;;;55.00;;
31390;SDS011;18022;45.492;11.548;2023-02-01T00:36:00;80.35;;;48.35;;
31390;SDS011;18022;45.492;11.548;2023-02-01T00:38:26;81.32;;;50.50;;
31390;SDS011;18022;45.492;11.548;2023-02-01T00:40:53;86.75;;;52.22;;
31390;SDS011;18022;45.492;11.548;2023-02-01T00:43:19;86.75;;;51.72;;
31390;SDS011;18022;45.492;11.548;2023-02-01T00:45:47;92.15;;;54.08;;
31390;SDS011;18022;45.492;11.548;2023-02-01T00:48:13;88.85;;;52.00;;
31390;SDS011;18022;45.492;11.548;2023-02-01T00:50:42;93.00;;;52.63;;
31390;SDS011;18022;45.492;11.548;2023-02-01T00:53:12;87.65;;;50.58;;
31390;SDS011;18022;45.492;11.548;2023-02-01T00:55:38;80.95;;;50.88;;
31390;SDS011;18022;45.492;11.548;2023-02-01T00:58:04;74.55;;;47.35;;
31390;SDS011;18022;45.492;11.548;2023-02-01T01:00:31;74.90;;;47.63;;
31390;SDS011;18022;45.492;11.548;2023-02-01T01:02:57;79.43;;;49.72;;
31390;SDS011;18022;45.492;11.548;2023-02-01T01:05:24;77.65;;;49.47;;
31390;SDS011;18022;45.492;11.548;2023-02-01T01:07:52;75.45;;;50.45;;
31390;SDS011;18022;45.492;11.548;2023-02-01T01:10:19;86.70;;;50.53;;
31390;SDS011;18022;45.492;11.548;2023-02-01T01:12:45;83.90;;;52.45;;
31390;SDS011;18022;45.492;11.548;2023-02-01T01:15:11;83.55;;;51.25;;
31390;SDS011;18022;45.492;11.548;2023-02-01T01:17:37;77.90;;;48.97;;
31390;SDS011;18022;45.492;11.548;2023-02-01T01:20:03;80.32;;;51.38;;
31390;SDS011;18022;45.492;11.548;2023-02-01T01:22:29;73.18;;;48.22;;
31390;SDS011;18022;45.492;11.548;2023-02-01T01:24:55;74.65;;;47.22;;
31390;SDS011;18022;45.492;11.548;2023-02-01T01:27:21;70.22;;;47.35;;
31390;SDS011;18022;45.492;11.548;2023-02-01T01:29:49;69.35;;;43.35;;
31390;SDS011;18022;45.492;11.548;2023-02-01T01:32:15;62.58;;;43.20;;
31390;SDS011;18022;45.492;11.548;2023-02-01T01:34:41;72.40;;;47.88;;
31390;SDS011;18022;45.492;11.548;2023-02-01T01:37:07;69.90;;;46.13;;
31390;SDS011;18022;45.492;11.548;2023-02-01T01:39:33;66.15;;;45.20;;
31390;SDS011;18022;45.492;11.548;2023-02-01T01:41:59;72.80;;;46.63;;
31390;SDS011;18022;45.492;11.548;2023-02-01T01:47:10;56.03;;;40.15;;
31390;SDS011;18022;45.492;11.548;2023-02-01T01:49:36;64.70;;;41.28;;
31390;SDS011;18022;45.492;11.548;2023-02-01T01:52:03;98.18;;;44.35;;
31390;SDS011;18022;45.492;11.548;2023-02-01T01:54:33;75.35;;;46.90;;
31390;SDS011;18022;45.492;11.548;2023-02-01T01:57:04;66.70;;;45.50;;
31390;SDS011;18022;45.492;11.548;2023-02-01T01:59:32;69.13;;;44.42;;
31390;SDS011;18022;45.492;11.548;2023-02-01T02:01:59;60.72;;;42.97;;
31390;SDS011;18022;45.492;11.548;2023-02-01T02:04:25;53.80;;;39.78;;
31390;SDS011;18022;45.492;11.548;2023-02-01T02:06:54;54.90;;;40.15;;
31390;SDS011;18022;45.492;11.548;2023-02-01T02:09:21;59.88;;;43.08;;
31390;SDS011;18022;45.492;11.548;2023-02-01T02:11:47;67.55;;;44.55;;
31390;SDS011;18022;45.492;11.548;2023-02-01T02:14:14;64.30;;;43.42;;
31390;SDS011;18022;45.492;11.548;2023-02-01T02:37:46;53.67;;;39.80;;
31390;SDS011;18022;45.492;11.548;2023-02-01T02:40:32;55.20;;;40.30;;
31390;SDS011;18022;45.492;11.548;2023-02-01T02:51:22;70.30;;;43.83;;
31390;SDS011;18022;45.492;11.548;2023-02-01T02:54:18;62.63;;;43.05;;
31390;SDS011;18022;45.492;11.548;2023-02-01T02:57:06;62.78;;;43.90;;
31390;SDS011;18022;45.492;11.548;2023-02-01T02:59:51;66.63;;;44.28;;
31390;SDS011;18022;45.492;11.548;2023-02-01T03:02:37;81.63;;;48.00;;
31390;SDS011;18022;45.492;11.548;2023-02-01T03:05:22;64.68;;;43.67;;
31390;SDS011;18022;45.492;11.548;2023-02-01T03:10:20;69.82;;;46.35;;
31390;SDS011;18022;45.492;11.548;2023-02-01T03:12:50;70.00;;;46.10;;
31390;SDS011;18022;45.492;11.548;2023-02-01T03:15:45;67.90;;;45.17;;
31390;SDS011;18022;45.492;11.548;2023-02-01T03:18:20;57.00;;;40.38;;
31390;SDS011;18022;45.492;11.548;2023-02-01T03:20:49;51.58;;;38.55;;
31390;SDS011;18022;45.492;11.548;2023-02-01T03:23:17;54.42;;;40.53;;
31390;SDS011;18022;45.492;11.548;2023-02-01T03:25:45;54.65;;;40.42;;
31390;SDS011;18022;45.492;11.548;2023-02-01T03:28:13;52.35;;;39.40;;
31390;SDS011;18022;45.492;11.548;2023-02-01T03:30:42;49.15;;;38.28;;
31390;SDS011;18022;45.492;11.548;2023-02-01T03:33:11;51.85;;;40.45;;
31390;SDS011;18022;45.492;11.548;2023-02-01T03:38:22;45.90;;;36.47;;
31390;SDS011;18022;45.492;11.548;2023-02-01T03:40:54;47.38;;;37.08;;
31390;SDS011;18022;45.492;11.548;2023-02-01T03:43:21;51.45;;;35.78;;
31390;SDS011;18022;45.492;11.548;2023-02-01T03:45:52;54.08;;;39.38;;
31390;SDS011;18022;45.492;11.548;2023-02-01T03:48:20;112.00;;;45.13;;
31390;SDS011;18022;45.492;11.548;2023-02-01T03:50:49;88.10;;;42.97;;
31390;SDS011;18022;45.492;11.548;2023-02-01T03:53:20;85.88;;;44.83;;
31390;SDS011;18022;45.492;11.548;2023-02-01T03:55:47;63.95;;;42.50;;
31390;SDS011;18022;45.492;11.548;2023-02-01T03:58:15;69.03;;;44.88;;
31390;SDS011;18022;45.492;11.548;2023-02-01T04:00:43;71.28;;;46.30;;
31390;SDS011;18022;45.492;11.548;2023-02-01T04:03:10;67.97;;;44.55;;
31390;SDS011;18022;45.492;11.548;2023-02-01T04:05:36;71.88;;;43.95;;
31390;SDS011;18022;45.492;11.548;2023-02-01T04:08:02;73.80;;;45.10;;
31390;SDS011;18022;45.492;11.548;2023-02-01T04:10:30;74.95;;;43.17;;
31390;SDS011;18022;45.492;11.548;2023-02-01T04:12:56;67.53;;;42.95;;
31390;SDS011;18022;45.492;11.548;2023-02-01T04:15:22;65.95;;;40.78;;
31390;SDS011;18022;45.492;11.548;2023-02-01T04:17:48;55.20;;;39.08;;
31390;SDS011;18022;45.492;11.548;2023-02-01T04:20:14;58.00;;;40.83;;
31390;SDS011;18022;45.492;11.548;2023-02-01T04:22:40;56.38;;;39.47;;
31390;SDS011;18022;45.492;11.548;2023-02-01T04:25:07;55.95;;;39.42;;
31390;SDS011;18022;45.492;11.548;2023-02-01T04:27:33;65.22;;;42.42;;
31390;SDS011;18022;45.492;11.548;2023-02-01T04:29:59;68.05;;;46.15;;
31390;SDS011;18022;45.492;11.548;2023-02-01T04:32:26;75.65;;;46.97;;
31390;SDS011;18022;45.492;11.548;2023-02-01T04:34:53;82.45;;;47.60;;
31390;SDS011;18022;45.492;11.548;2023-02-01T04:37:19;79.10;;;47.28;;
31390;SDS011;18022;45.492;11.548;2023-02-01T04:39:45;75.97;;;45.70;;
31390;SDS011;18022;45.492;11.548;2023-02-01T04:42:11;64.97;;;44.15;;
31390;SDS011;18022;45.492;11.548;2023-02-01T04:44:37;70.60;;;45.25;;
31390;SDS011;18022;45.492;11.548;2023-02-01T04:47:06;69.32;;;44.33;;
31390;SDS011;18022;45.492;11.548;2023-02-01T04:49:32;64.07;;;44.22;;
31390;SDS011;18022;45.492;11.548;2023-02-01T04:51:58;62.58;;;43.08;;
31390;SDS011;18022;45.492;11.548;2023-02-01T04:54:24;61.88;;;41.83;;
31390;SDS011;18022;45.492;11.548;2023-02-01T04:56:50;63.28;;;42.90;;
31390;SDS011;18022;45.492;11.548;2023-02-01T04:59:16;58.67;;;42.47;;
31390;SDS011;18022;45.492;11.548;2023-02-01T05:01:42;56.95;;;42.25;;
31390;SDS011;18022;45.492;11.548;2023-02-01T05:04:08;64.78;;;45.45;;
31390;SDS011;18022;45.492;11.548;2023-02-01T05:06:34;67.20;;;47.08;;
31390;SDS011;18022;45.492;11.548;2023-02-01T05:09:00;52.13;;;39.22;;
31390;SDS011;18022;45.492;11.548;2023-02-01T05:11:27;48.70;;;36.58;;
31390;SDS011;18022;45.492;11.548;2023-02-01T05:14:11;49.35;;;38.30;;
31390;SDS011;18022;45.492;11.548;2023-02-01T05:16:37;52.92;;;38.78;;
31390;SDS011;18022;45.492;11.548;2023-02-01T05:19:03;56.50;;;40.83;;
31390;SDS011;18022;45.492;11.548;2023-02-01T05:21:29;61.45;;;44.78;;
31390;SDS011;18022;45.492;11.548;2023-02-01T05:23:55;58.78;;;40.90;;
31390;SDS011;18022;45.492;11.548;2023-02-01T05:26:44;58.38;;;41.45;;
31390;SDS011;18022;45.492;11.548;2023-02-01T05:29:11;64.53;;;44.75;;
31390;SDS011;18022;45.492;11.548;2023-02-01T05:31:38;70.22;;;46.00;;
31390;SDS011;18022;45.492;11.548;2023-02-01T05:34:04;63.78;;;44.42;;
31390;SDS011;18022;45.492;11.548;2023-02-01T05:36:31;83.63;;;39.67;;
31390;SDS011;18022;45.492;11.548;2023-02-01T05:38:57;50.10;;;38.30;;
31390;SDS011;18022;45.492;11.548;2023-02-01T05:41:23;52.17;;;39.13;;
31390;SDS011;18022;45.492;11.548;2023-02-01T05:43:49;53.28;;;39.97;;
31390;SDS011;18022;45.492;11.548;2023-02-01T05:46:15;71.20;;;41.05;;
31390;SDS011;18022;45.492;11.548;2023-02-01T05:48:41;53.60;;;39.33;;
31390;SDS011;18022;45.492;11.548;2023-02-01T05:51:08;50.90;;;38.45;;
31390;SDS011;18022;45.492;11.548;2023-02-01T05:53:34;59.40;;;42.00;;
31390;SDS011;18022;45.492;11.548;2023-02-01T05:56:00;51.67;;;39.45;;
31390;SDS011;18022;45.492;11.548;2023-02-01T05:58:26;54.30;;;41.13;;
31390;SDS011;18022;45.492;11.548;2023-02-01T06:00:52;54.08;;;39.80;;
31390;SDS011;18022;45.492;11.548;2023-02-01T06:03:19;52.47;;;39.17;;
31390;SDS011;18022;45.492;11.548;2023-02-01T06:05:45;78.00;;;42.25;;
31390;SDS011;18022;45.492;11.548;2023-02-01T06:08:11;156.02;;;42.42;;
31390;SDS011;18022;45.492;11.548;2023-02-01T06:10:37;56.30;;;40.78;;
31390;SDS011;18022;45.492;11.548;2023-02-01T06:13:03;56.40;;;41.05;;
31390;SDS011;18022;45.492;11.548;2023-02-01T06:15:30;56.58;;;39.85;;
31390;SDS011;18022;45.492;11.548;2023-02-01T06:17:57;50.25;;;38.25;;
31390;SDS011;18022;45.492;11.548;2023-02-01T06:20:23;52.47;;;39.45;;
31390;SDS011;18022;45.492;11.548;2023-02-01T06:22:49;50.72;;;38.22;;
31390;SDS011;18022;45.492;11.548;2023-02-01T06:25:17;37.83;;;32.78;;
31390;SDS011;18022;45.492;11.548;2023-02-01T06:27:44;51.45;;;38.08;;
31390;SDS011;18022;45.492;11.548;2023-02-01T06:30:10;49.45;;;38.03;;
31390;SDS011;18022;45.492;11.548;2023-02-01T06:32:40;50.17;;;38.88;;
31390;SDS011;18022;45.492;11.548;2023-02-01T06:35:07;52.03;;;39.00;;
31390;SDS011;18022;45.492;11.548;2023-02-01T06:37:36;50.50;;;38.63;;
31390;SDS011;18022;45.492;11.548;2023-02-01T06:40:02;35.20;;;26.60;;
31390;SDS011;18022;45.492;11.548;2023-02-01T06:42:28;55.92;;;39.88;;
31390;SDS011;18022;45.492;11.548;2023-02-01T06:44:54;59.67;;;40.78;;
31390;SDS011;18022;45.492;11.548;2023-02-01T06:47:20;65.30;;;44.15;;
31390;SDS011;18022;45.492;11.548;2023-02-01T06:49:46;58.63;;;40.35;;
31390;SDS011;18022;45.492;11.548;2023-02-01T06:52:12;62.75;;;43.25;;
31390;SDS011;18022;45.492;11.548;2023-02-01T06:54:38;48.65;;;31.90;;
31390;SDS011;18022;45.492;11.548;2023-02-01T06:57:04;59.13;;;42.20;;
31390;SDS011;18022;45.492;11.548;2023-02-01T06:59:30;54.85;;;38.33;;
31390;SDS011;18022;45.492;11.548;2023-02-01T07:01:56;73.80;;;40.30;;
31390;SDS011;18022;45.492;11.548;2023-02-01T07:04:22;50.70;;;33.92;;
31390;SDS011;18022;45.492;11.548;2023-02-01T07:06:48;58.85;;;42.00;;
31390;SDS011;18022;45.492;11.548;2023-02-01T07:09:14;65.60;;;43.20;;
31390;SDS011;18022;45.492;11.548;2023-02-01T07:11:41;99.75;;;44.22;;
31390;SDS011;18022;45.492;11.548;2023-02-01T07:14:08;64.30;;;42.92;;
31390;SDS011;18022;45.492;11.548;2023-02-01T07:16:35;59.08;;;42.10;;
31390;SDS011;18022;45.492;11.548;2023-02-01T07:19:01;62.58;;;41.35;;
31390;SDS011;18022;45.492;11.548;2023-02-01T07:21:27;58.05;;;40.40;;
31390;SDS011;18022;45.492;11.548;2023-02-01T07:23:54;52.45;;;38.08;;
31390;SDS011;18022;45.492;11.548;2023-02-01T07:26:20;56.50;;;39.60;;
31390;SDS011;18022;45.492;11.548;2023-02-01T07:28:46;63.13;;;42.03;;
31390;SDS011;18022;45.492;11.548;2023-02-01T07:31:13;61.83;;;41.75;;
31390;SDS011;18022;45.492;11.548;2023-02-01T07:33:40;63.58;;;42.85;;
31390;SDS011;18022;45.492;11.548;2023-02-01T07:36:07;67.68;;;44.78;;
31390;SDS011;18022;45.492;11.548;2023-02-01T07:38:33;64.88;;;44.80;;
31390;SDS011;18022;45.492;11.548;2023-02-01T07:41:00;66.15;;;44.58;;
31390;SDS011;18022;45.492;11.548;2023-02-01T07:43:26;64.22;;;44.80;;
31390;SDS011;18022;45.492;11.548;2023-02-01T07:45:53;60.67;;;42.13;;
31390;SDS011;18022;45.492;11.548;2023-02-01T07:48:19;70.43;;;45.03;;
31390;SDS011;18022;45.492;11.548;2023-02-01T07:50:45;68.80;;;44.10;;
31390;SDS011;18022;45.492;11.548;2023-02-01T07:53:11;69.45;;;45.88;;
31390;SDS011;18022;45.492;11.548;2023-02-01T07:55:38;73.65;;;47.20;;
31390;SDS011;18022;45.492;11.548;2023-02-01T07:58:04;72.93;;;48.00;;
31390;SDS011;18022;45.492;11.548;2023-02-01T08:00:30;76.82;;;50.63;;
31390;SDS011;18022;45.492;11.548;2023-02-01T08:03:15;75.70;;;48.58;;
31390;SDS011;18022;45.492;11.548;2023-02-01T08:05:41;66.93;;;46.47;;
31390;SDS011;18022;45.492;11.548;2023-02-01T08:08:07;78.95;;;50.78;;
31390;SDS011;18022;45.492;11.548;2023-02-01T08:10:33;74.85;;;49.80;;
31390;SDS011;18022;45.492;11.548;2023-02-01T08:13:00;76.03;;;50.85;;
31390;SDS011;18022;45.492;11.548;2023-02-01T08:15:26;81.57;;;52.67;;
31390;SDS011;18022;45.492;11.548;2023-02-01T08:17:53;74.45;;;50.28;;
31390;SDS011;18022;45.492;11.548;2023-02-01T08:20:20;78.97;;;51.22;;
31390;SDS011;18022;45.492;11.548;2023-02-01T08:22:50;81.75;;;51.30;;
31390;SDS011;18022;45.492;11.548;2023-02-01T08:25:16;78.55;;;52.28;;
31390;SDS011;18022;45.492;11.548;2023-02-01T08:27:42;80.20;;;51.95;;
31390;SDS011;18022;45.492;11.548;2023-02-01T08:30:10;78.97;;;52.35;;
31390;SDS011;18022;45.492;11.548;2023-02-01T08:32:38;82.38;;;51.55;;
31390;SDS011;18022;45.492;11.548;2023-02-01T08:35:05;90.18;;;51.75;;
31390;SDS011;18022;45.492;11.548;2023-02-01T08:37:31;82.57;;;50.47;;
31390;SDS011;18022;45.492;11.548;2023-02-01T08:39:57;81.47;;;51.28;;
31390;SDS011;18022;45.492;11.548;2023-02-01T08:42:23;80.30;;;49.53;;
31390;SDS011;18022;45.492;11.548;2023-02-01T08:45:08;77.85;;;49.13;;
31390;SDS011;18022;45.492;11.548;2023-02-01T08:47:34;75.55;;;49.03;;
31390;SDS011;18022;45.492;11.548;2023-02-01T08:50:00;78.97;;;50.92;;
31390;SDS011;18022;45.492;11.548;2023-02-01T08:52:26;74.97;;;48.03;;
31390;SDS011;18022;45.492;11.548;2023-02-01T08:54:52;80.32;;;50.15;;
31390;SDS011;18022;45.492;11.548;2023-02-01T08:57:18;75.75;;;48.85;;
31390;SDS011;18022;45.492;11.548;2023-02-01T08:59:44;78.72;;;50.58;;
31390;SDS011;18022;45.492;11.548;2023-02-01T09:02:14;82.63;;;51.70;;
31390;SDS011;18022;45.492;11.548;2023-02-01T09:04:41;84.35;;;53.10;;
31390;SDS011;18022;45.492;11.548;2023-02-01T09:07:10;85.15;;;52.40;;
31390;SDS011;18022;45.492;11.548;2023-02-01T09:09:38;90.50;;;54.72;;
31390;SDS011;18022;45.492;11.548;2023-02-01T09:12:04;91.63;;;54.97;;
31390;SDS011;18022;45.492;11.548;2023-02-01T09:14:30;91.32;;;54.17;;
31390;SDS011;18022;45.492;11.548;2023-02-01T09:16:56;90.97;;;55.15;;
31390;SDS011;18022;45.492;11.548;2023-02-01T09:19:22;90.72;;;54.53;;
31390;SDS011;18022;45.492;11.548;2023-02-01T09:21:48;94.03;;;55.35;;
31390;SDS011;18022;45.492;11.548;2023-02-01T09:24:15;88.50;;;53.30;;
31390;SDS011;18022;45.492;11.548;2023-02-01T09:26:41;85.80;;;52.15;;
31390;SDS011;18022;45.492;11.548;2023-02-01T09:29:07;86.03;;;52.58;;
31390;SDS011;18022;45.492;11.548;2023-02-01T09:31:36;91.28;;;53.17;;
31390;SDS011;18022;45.492;11.548;2023-02-01T09:34:02;90.40;;;55.47;;
31390;SDS011;18022;45.492;11.548;2023-02-01T09:36:29;87.95;;;52.42;;
31390;SDS011;18022;45.492;11.548;2023-02-01T09:38:55;97.53;;;55.72;;
31390;SDS011;18022;45.492;11.548;2023-02-01T09:41:32;101.82;;;56.95;;
31390;SDS011;18022;45.492;11.548;2023-02-01T09:46:47;96.70;;;57.47;;
31390;SDS011;18022;45.492;11.548;2023-02-01T09:49:18;96.60;;;58.65;;
31390;SDS011;18022;45.492;11.548;2023-02-01T09:51:47;95.47;;;56.15;;
31390;SDS011;18022;45.492;11.548;2023-02-01T09:54:15;97.75;;;57.80;;
31390;SDS011;18022;45.492;11.548;2023-02-01T09:56:49;100.78;;;58.35;;
31390;SDS011;18022;45.492;11.548;2023-02-01T10:01:43;100.00;;;57.78;;
31390;SDS011;18022;45.492;11.548;2023-02-01T10:04:10;97.88;;;57.47;;
31390;SDS011;18022;45.492;11.548;2023-02-01T10:14:48;102.25;;;59.60;;
31390;SDS011;18022;45.492;11.548;2023-02-01T10:22:45;116.50;;;66.90;;
31390;SDS011;18022;45.492;11.548;2023-02-01T10:27:41;125.47;;;76.93;;
31390;SDS011;18022;45.492;11.548;2023-02-01T10:32:42;111.60;;;63.75;;
31390;SDS011;18022;45.492;11.548;2023-02-01T10:35:16;111.57;;;61.65;;
31390;SDS011;18022;45.492;11.548;2023-02-01T10:37:43;117.25;;;65.30;;
31390;SDS011;18022;45.492;11.548;2023-02-01T10:40:24;110.05;;;60.78;;
31390;SDS011;18022;45.492;11.548;2023-02-01T10:42:52;102.85;;;60.45;;
31390;SDS011;18022;45.492;11.548;2023-02-01T10:47:45;107.88;;;63.08;;
31390;SDS011;18022;45.492;11.548;2023-02-01T10:55:50;112.35;;;62.70;;
31390;SDS011;18022;45.492;11.548;2023-02-01T11:00:44;107.97;;;64.07;;
31390;SDS011;18022;45.492;11.548;2023-02-01T11:05:43;119.50;;;67.80;;
31390;SDS011;18022;45.492;11.548;2023-02-01T11:08:12;100.57;;;58.58;;
31390;SDS011;18022;45.492;11.548;2023-02-01T11:10:41;107.32;;;62.10;;
31390;SDS011;18022;45.492;11.548;2023-02-01T11:13:14;109.88;;;61.25;;
31390;SDS011;18022;45.492;11.548;2023-02-01T11:15:46;104.07;;;60.25;;
31390;SDS011;18022;45.492;11.548;2023-02-01T11:18:24;109.90;;;64.10;;
31390;SDS011;18022;45.492;11.548;2023-02-01T11:20:51;105.80;;;55.10;;
31390;SDS011;18022;45.492;11.548;2023-02-01T11:23:21;104.53;;;59.92;;
31390;SDS011;18022;45.492;11.548;2023-02-01T11:28:13;101.28;;;57.88;;
31390;SDS011;18022;45.492;11.548;2023-02-01T11:30:41;104.90;;;60.25;;
31390;SDS011;18022;45.492;11.548;2023-02-01T11:33:12;106.63;;;60.75;;
31390;SDS011;18022;45.492;11.548;2023-02-01T11:35:38;107.07;;;63.70;;
31390;SDS011;18022;45.492;11.548;2023-02-01T11:38:20;100.88;;;58.30;;
31390;SDS011;18022;45.492;11.548;2023-02-01T11:40:46;98.57;;;57.35;;
31390;SDS011;18022;45.492;11.548;2023-02-01T11:43:26;107.00;;;63.72;;
31390;SDS011;18022;45.492;11.548;2023-02-01T11:45:56;105.10;;;61.03;;
31390;SDS011;18022;45.492;11.548;2023-02-01T11:48:23;99.32;;;58.50;;
31390;SDS011;18022;45.492;11.548;2023-02-01T11:51:15;101.15;;;58.72;;
31390;SDS011;18022;45.492;11.548;2023-02-01T11:59:04;97.43;;;53.88;;
31390;SDS011;18022;45.492;11.548;2023-02-01T12:17:02;103.57;;;60.72;;
31390;SDS011;18022;45.492;11.548;2023-02-01T12:22:14;86.22;;;49.42;;
31390;SDS011;18022;45.492;11.548;2023-02-01T12:35:01;91.90;;;54.60;;
31390;SDS011;18022;45.492;11.548;2023-02-01T12:42:33;95.50;;;52.45;;
31390;SDS011;18022;45.492;11.548;2023-02-01T12:45:06;96.18;;;56.72;;
31390;SDS011;18022;45.492;11.548;2023-02-01T12:47:41;89.03;;;53.53;;
31390;SDS011;18022;45.492;11.548;2023-02-01T12:50:24;98.72;;;55.47;;
31390;SDS011;18022;45.492;11.548;2023-02-01T12:52:51;96.32;;;56.40;;
31390;SDS011;18022;45.492;11.548;2023-02-01T12:55:34;95.63;;;56.53;;
31390;SDS011;18022;45.492;11.548;2023-02-01T12:58:04;89.28;;;52.25;;
31390;SDS011;18022;45.492;11.548;2023-02-01T13:00:36;96.28;;;56.15;;
31390;SDS011;18022;45.492;11.548;2023-02-01T13:05:53;97.57;;;54.45;;
31390;SDS011;18022;45.492;11.548;2023-02-01T13:08:22;91.40;;;51.35;;
31390;SDS011;18022;45.492;11.548;2023-02-01T13:11:00;85.20;;;51.20;;
31390;SDS011;18022;45.492;11.548;2023-02-01T13:13:31;90.25;;;53.38;;
31390;SDS011;18022;45.492;11.548;2023-02-01T13:18:41;86.47;;;50.78;;
31390;SDS011;18022;45.492;11.548;2023-02-01T13:21:10;92.75;;;53.60;;
31390;SDS011;18022;45.492;11.548;2023-02-01T13:23:39;89.30;;;52.00;;
31390;SDS011;18022;45.492;11.548;2023-02-01T13:26:05;92.85;;;54.45;;
31390;SDS011;18022;45.492;11.548;2023-02-01T13:41:32;90.93;;;51.40;;
31390;SDS011;18022;45.492;11.548;2023-02-01T13:44:02;86.30;;;51.38;;
31390;SDS011;18022;45.492;11.548;2023-02-01T13:46:30;93.75;;;52.92;;
31390;SDS011;18022;45.492;11.548;2023-02-01T13:49:04;87.65;;;51.75;;
31390;SDS011;18022;45.492;11.548;2023-02-01T13:53:59;88.93;;;51.25;;
31390;SDS011;18022;45.492;11.548;2023-02-01T13:56:25;87.95;;;52.78;;
31390;SDS011;18022;45.492;11.548;2023-02-01T13:58:52;84.20;;;52.13;;
31390;SDS011;18022;45.492;11.548;2023-02-01T14:03:45;89.93;;;51.40;;
31390;SDS011;18022;45.492;11.548;2023-02-01T14:06:33;81.78;;;47.67;;
31390;SDS011;18022;45.492;11.548;2023-02-01T14:11:33;90.65;;;52.17;;
31390;SDS011;18022;45.492;11.548;2023-02-01T14:16:42;93.28;;;54.53;;
31390;SDS011;18022;45.492;11.548;2023-02-01T14:19:09;86.90;;;51.97;;
31390;SDS011;18022;45.492;11.548;2023-02-01T14:21:46;89.07;;;54.37;;
31390;SDS011;18022;45.492;11.548;2023-02-01T14:26:45;91.57;;;53.35;;
31390;SDS011;18022;45.492;11.548;2023-02-01T14:37:01;98.28;;;57.75;;
31390;SDS011;18022;45.492;11.548;2023-02-01T14:41:57;99.22;;;57.85;;
31390;SDS011;18022;45.492;11.548;2023-02-01T14:49:32;89.00;;;53.65;;
31390;SDS011;18022;45.492;11.548;2023-02-01T14:51:59;86.82;;;51.92;;
31390;SDS011;18022;45.492;11.548;2023-02-01T14:54:25;91.55;;;53.40;;
31390;SDS011;18022;45.492;11.548;2023-02-01T14:56:52;91.10;;;52.57;;
31390;SDS011;18022;45.492;11.548;2023-02-01T14:59:20;92.45;;;52.53;;
31390;SDS011;18022;45.492;11.548;2023-02-01T15:04:14;84.40;;;51.58;;
31390;SDS011;18022;45.492;11.548;2023-02-01T15:09:14;91.78;;;55.05;;
31390;SDS011;18022;45.492;11.548;2023-02-01T15:14:26;89.65;;;52.08;;
31390;SDS011;18022;45.492;11.548;2023-02-01T15:16:53;97.00;;;58.67;;
31390;SDS011;18022;45.492;11.548;2023-02-01T15:19:20;91.70;;;55.45;;
31390;SDS011;18022;45.492;11.548;2023-02-01T15:21:50;102.53;;;64.38;;
31390;SDS011;18022;45.492;11.548;2023-02-01T15:24:21;99.28;;;59.53;;
31390;SDS011;18022;45.492;11.548;2023-02-01T15:26:47;93.63;;;55.92;;
31390;SDS011;18022;45.492;11.548;2023-02-01T15:29:14;96.85;;;57.63;;
31390;SDS011;18022;45.492;11.548;2023-02-01T15:31:41;100.03;;;60.50;;
31390;SDS011;18022;45.492;11.548;2023-02-01T15:34:09;104.70;;;59.88;;
31390;SDS011;18022;45.492;11.548;2023-02-01T15:36:35;94.30;;;56.45;;
31390;SDS011;18022;45.492;11.548;2023-02-01T15:39:12;96.82;;;61.58;;
31390;SDS011;18022;45.492;11.548;2023-02-01T15:41:44;102.28;;;61.92;;
31390;SDS011;18022;45.492;11.548;2023-02-01T15:46:57;114.28;;;65.38;;
31390;SDS011;18022;45.492;11.548;2023-02-01T15:49:30;93.13;;;57.10;;
31390;SDS011;18022;45.492;11.548;2023-02-01T15:51:58;92.40;;;54.22;;
31390;SDS011;18022;45.492;11.548;2023-02-01T15:54:31;96.05;;;53.72;;
31390;SDS011;18022;45.492;11.548;2023-02-01T15:56:58;92.57;;;53.42;;
31390;SDS011;18022;45.492;11.548;2023-02-01T15:59:30;90.22;;;54.08;;
31390;SDS011;18022;45.492;11.548;2023-02-01T16:01:58;87.13;;;52.25;;
31390;SDS011;18022;45.492;11.548;2023-02-01T16:04:24;95.25;;;55.75;;
31390;SDS011;18022;45.492;11.548;2023-02-01T16:06:55;83.32;;;52.40;;
31390;SDS011;18022;45.492;11.548;2023-02-01T16:09:23;84.45;;;50.20;;
31390;SDS011;18022;45.492;11.548;2023-02-01T16:11:57;81.78;;;48.90;;
31390;SDS011;18022;45.492;11.548;2023-02-01T16:14:24;84.60;;;48.05;;
31390;SDS011;18022;45.492;11.548;2023-02-01T16:16:51;78.15;;;49.00;;
31390;SDS011;18022;45.492;11.548;2023-02-01T16:19:17;97.32;;;56.60;;
31390;SDS011;18022;45.492;11.548;2023-02-01T16:21:43;110.10;;;65.07;;
31390;SDS011;18022;45.492;11.548;2023-02-01T16:24:09;103.32;;;63.00;;
31390;SDS011;18022;45.492;11.548;2023-02-01T16:26:35;103.45;;;62.60;;
31390;SDS011;18022;45.492;11.548;2023-02-01T16:29:03;116.97;;;70.68;;
31390;SDS011;18022;45.492;11.548;2023-02-01T16:31:32;110.15;;;68.13;;
31390;SDS011;18022;45.492;11.548;2023-02-01T16:33:59;96.75;;;59.83;;
31390;SDS011;18022;45.492;11.548;2023-02-01T16:36:25;108.38;;;66.55;;
31390;SDS011;18022;45.492;11.548;2023-02-01T16:38:53;98.47;;;55.88;;
31390;SDS011;18022;45.492;11.548;2023-02-01T16:41:20;88.78;;;51.90;;
31390;SDS011;18022;45.492;11.548;2023-02-01T16:43:49;78.63;;;48.40;;
31390;SDS011;18022;45.492;11.548;2023-02-01T16:46:16;87.22;;;51.72;;
31390;SDS011;18022;45.492;11.548;2023-02-01T16:48:46;78.47;;;49.97;;
31390;SDS011;18022;45.492;11.548;2023-02-01T16:51:15;86.20;;;53.05;;
31390;SDS011;18022;45.492;11.548;2023-02-01T16:53:41;95.53;;;59.80;;
31390;SDS011;18022;45.492;11.548;2023-02-01T16:56:41;106.95;;;63.25;;
31390;SDS011;18022;45.492;11.548;2023-02-01T16:59:00;100.43;;;57.72;;
31390;SDS011;18022;45.492;11.548;2023-02-01T17:01:27;96.47;;;56.95;;
31390;SDS011;18022;45.492;11.548;2023-02-01T17:03:53;93.38;;;55.75;;
31390;SDS011;18022;45.492;11.548;2023-02-01T17:06:20;96.47;;;56.92;;